sensor_id;sensor_type;location;lat;lon;timestamp;P1;durP1;ratioP1;P2;durP2;ratioP2
47273;SDS011;33007;49.082;19.306;2022-08-19T00:01:07;12.15;;;10.88;;
47273;SDS011;33007;49.082;19.306;2022-08-19T00:03:33;16.73;;;11.38;;
47273;SDS011;33007;49.082;19.306;2022-08-19T00:05:58;26.67;;;12.80;;
47273;SDS011;33007;49.082;19.306;2022-08-19T00:08:24;13.38;;;12.07;;
47273;SDS011;33007;49.082;19.306;2022-08-19T00:10:49;12.23;;;10.93;;
47273;SDS011;33007;49.082;19.306;2022-08-19T00:13:15;13.93;;;11.23;;
47273;SDS011;33007;49.082;19.306;2022-08-19T00:15:40;13.30;;;12.00;;
47273;SDS011;33007;49.082;19.306;2022-08-19T00:18:06;14.30;;;11.55;;
47273;SDS011;33007;49.082;19.306;2022-08-19T00:20:32;12.35;;;11.18;;
47273;SDS011;33007;49.082;19.306;2022-08-19T00:22:57;12.52;;;11.20;;
47273;SDS011;33007;49.082;19.306;2022-08-19T00:25:23;12.73;;;11.32;;
47273;SDS011;33007;49.082;19.306;2022-08-19T00:27:48;12.52;;;11.27;;
47273;SDS011;33007;49.082;19.306;2022-08-19T00:30:14;13.05;;;11.57;;
47273;SDS011;33007;49.082;19.306;2022-08-19T00:32:40;12.80;;;11.48;;
47273;SDS011;33007;49.082;19.306;2022-08-19T00:35:05;14.40;;;12.13;;
47273;SDS011;33007;49.082;19.306;2022-08-19T00:37:31;13.18;;;11.77;;
47273;SDS011;33007;49.082;19.306;2022-08-19T00:39:58;13.07;;;11.23;;
47273;SDS011;33007;49.082;19.306;2022-08-19T00:42:23;13.45;;;12.05;;
47273;SDS011;33007;49.082;19.306;2022-08-19T00:44:53;12.80;;;11.45;;
47273;SDS011;33007;49.082;19.306;2022-08-19T00:47:18;12.90;;;11.70;;
47273;SDS011;33007;49.082;19.306;2022-08-19T00:49:46;13.77;;;11.85;;
47273;SDS011;33007;49.082;19.306;2022-08-19T00:52:38;13.85;;;12.40;;
47273;SDS011;33007;49.082;19.306;2022-08-19T00:55:05;13.10;;;11.70;;
47273;SDS011;33007;49.082;19.306;2022-08-19T00:57:37;13.85;;;12.55;;
47273;SDS011;33007;49.082;19.306;2022-08-19T01:00:09;13.43;;;12.13;;
47273;SDS011;33007;49.082;19.306;2022-08-19T01:02:38;13.43;;;12.13;;
47273;SDS011;33007;49.082;19.306;2022-08-19T01:05:06;13.43;;;12.00;;
47273;SDS011;33007;49.082;19.306;2022-08-19T01:07:35;13.27;;;12.02;;
47273;SDS011;33007;49.082;19.306;2022-08-19T01:10:04;17.63;;;12.32;;
47273;SDS011;33007;49.082;19.306;2022-08-19T01:12:32;13.20;;;11.93;;
47273;SDS011;33007;49.082;19.306;2022-08-19T01:14:58;52.85;;;13.90;;
47273;SDS011;33007;49.082;19.306;2022-08-19T01:17:24;47.10;;;13.80;;
47273;SDS011;33007;49.082;19.306;2022-08-19T01:19:50;13.63;;;12.20;;
47273;SDS011;33007;49.082;19.306;2022-08-19T01:22:18;13.88;;;12.38;;
47273;SDS011;33007;49.082;19.306;2022-08-19T01:24:45;14.43;;;13.02;;
47273;SDS011;33007;49.082;19.306;2022-08-19T01:27:10;15.07;;;12.20;;
47273;SDS011;33007;49.082;19.306;2022-08-19T01:29:37;13.35;;;12.00;;
47273;SDS011;33007;49.082;19.306;2022-08-19T01:32:05;13.32;;;12.07;;
47273;SDS011;33007;49.082;19.306;2022-08-19T01:34:32;13.82;;;12.52;;
47273;SDS011;33007;49.082;19.306;2022-08-19T01:36:59;14.25;;;11.85;;
47273;SDS011;33007;49.082;19.306;2022-08-19T01:39:27;13.82;;;12.13;;
47273;SDS011;33007;49.082;19.306;2022-08-19T01:41:53;13.35;;;12.00;;
47273;SDS011;33007;49.082;19.306;2022-08-19T01:44:21;14.05;;;12.20;;
47273;SDS011;33007;49.082;19.306;2022-08-19T01:46:49;13.38;;;11.93;;
47273;SDS011;33007;49.082;19.306;2022-08-19T01:49:17;15.70;;;12.80;;
47273;SDS011;33007;49.082;19.306;2022-08-19T01:51:44;13.60;;;12.20;;
47273;SDS011;33007;49.082;19.306;2022-08-19T01:54:11;14.52;;;13.02;;
47273;SDS011;33007;49.082;19.306;2022-08-19T01:56:38;14.15;;;12.65;;
47273;SDS011;33007;49.082;19.306;2022-08-19T01:59:05;13.80;;;12.27;;
47273;SDS011;33007;49.082;19.306;2022-08-19T02:01:35;14.77;;;12.80;;
47273;SDS011;33007;49.082;19.306;2022-08-19T02:04:01;14.98;;;12.60;;
47273;SDS011;33007;49.082;19.306;2022-08-19T02:06:27;13.93;;;12.52;;
47273;SDS011;33007;49.082;19.306;2022-08-19T02:08:53;14.18;;;12.77;;
47273;SDS011;33007;49.082;19.306;2022-08-19T02:11:23;14.38;;;12.65;;
47273;SDS011;33007;49.082;19.306;2022-08-19T02:13:52;14.18;;;12.68;;
47273;SDS011;33007;49.082;19.306;2022-08-19T02:16:19;16.40;;;13.20;;
47273;SDS011;33007;49.082;19.306;2022-08-19T02:18:45;14.40;;;13.00;;
47273;SDS011;33007;49.082;19.306;2022-08-19T02:21:13;14.00;;;12.45;;
47273;SDS011;33007;49.082;19.306;2022-08-19T02:23:41;14.52;;;12.95;;
47273;SDS011;33007;49.082;19.306;2022-08-19T02:26:06;16.23;;;13.85;;
47273;SDS011;33007;49.082;19.306;2022-08-19T02:28:32;15.32;;;13.00;;
47273;SDS011;33007;49.082;19.306;2022-08-19T02:30:58;16.23;;;13.30;;
47273;SDS011;33007;49.082;19.306;2022-08-19T02:33:25;20.83;;;13.27;;
47273;SDS011;33007;49.082;19.306;2022-08-19T02:35:51;24.83;;;14.48;;
47273;SDS011;33007;49.082;19.306;2022-08-19T02:38:17;24.48;;;15.02;;
47273;SDS011;33007;49.082;19.306;2022-08-19T02:40:59;32.45;;;14.32;;
47273;SDS011;33007;49.082;19.306;2022-08-19T02:43:26;98.72;;;17.73;;
47273;SDS011;33007;49.082;19.306;2022-08-19T02:45:53;20.35;;;13.98;;
47273;SDS011;33007;49.082;19.306;2022-08-19T02:48:20;21.15;;;13.65;;
47273;SDS011;33007;49.082;19.306;2022-08-19T02:50:47;15.73;;;13.35;;
47273;SDS011;33007;49.082;19.306;2022-08-19T02:53:17;15.55;;;12.90;;
47273;SDS011;33007;49.082;19.306;2022-08-19T02:55:44;22.67;;;12.90;;
47273;SDS011;33007;49.082;19.306;2022-08-19T02:58:11;16.35;;;13.20;;
47273;SDS011;33007;49.082;19.306;2022-08-19T03:00:42;15.27;;;13.48;;
47273;SDS011;33007;49.082;19.306;2022-08-19T03:03:09;14.43;;;12.98;;
47273;SDS011;33007;49.082;19.306;2022-08-19T03:05:35;14.48;;;13.07;;
47273;SDS011;33007;49.082;19.306;2022-08-19T03:08:04;14.98;;;13.15;;
47273;SDS011;33007;49.082;19.306;2022-08-19T03:10:31;15.77;;;14.20;;
47273;SDS011;33007;49.082;19.306;2022-08-19T03:12:57;15.05;;;13.48;;
47273;SDS011;33007;49.082;19.306;2022-08-19T03:15:23;16.85;;;12.93;;
47273;SDS011;33007;49.082;19.306;2022-08-19T03:17:48;14.75;;;13.20;;
47273;SDS011;33007;49.082;19.306;2022-08-19T03:20:14;14.75;;;13.38;;
47273;SDS011;33007;49.082;19.306;2022-08-19T03:22:39;15.48;;;13.90;;
47273;SDS011;33007;49.082;19.306;2022-08-19T03:25:05;15.70;;;13.80;;
47273;SDS011;33007;49.082;19.306;2022-08-19T03:27:30;16.45;;;14.70;;
47273;SDS011;33007;49.082;19.306;2022-08-19T03:29:56;14.75;;;13.25;;
47273;SDS011;33007;49.082;19.306;2022-08-19T03:32:21;15.88;;;14.30;;
47273;SDS011;33007;49.082;19.306;2022-08-19T03:34:47;16.83;;;13.68;;
47273;SDS011;33007;49.082;19.306;2022-08-19T03:37:14;16.45;;;14.43;;
47273;SDS011;33007;49.082;19.306;2022-08-19T03:39:40;16.05;;;14.32;;
47273;SDS011;33007;49.082;19.306;2022-08-19T03:42:07;16.13;;;14.48;;
47273;SDS011;33007;49.082;19.306;2022-08-19T03:44:33;19.00;;;14.82;;
47273;SDS011;33007;49.082;19.306;2022-08-19T03:47:02;17.13;;;14.82;;
47273;SDS011;33007;49.082;19.306;2022-08-19T03:49:29;16.75;;;14.65;;
47273;SDS011;33007;49.082;19.306;2022-08-19T03:51:57;17.70;;;15.13;;
47273;SDS011;33007;49.082;19.306;2022-08-19T03:54:24;16.48;;;14.80;;
47273;SDS011;33007;49.082;19.306;2022-08-19T03:56:51;16.75;;;14.60;;
47273;SDS011;33007;49.082;19.306;2022-08-19T03:59:21;15.80;;;14.18;;
47273;SDS011;33007;49.082;19.306;2022-08-19T04:01:55;18.38;;;15.20;;
47273;SDS011;33007;49.082;19.306;2022-08-19T04:04:22;17.10;;;15.32;;
47273;SDS011;33007;49.082;19.306;2022-08-19T04:06:48;20.10;;;15.68;;
47273;SDS011;33007;49.082;19.306;2022-08-19T04:09:15;16.77;;;15.18;;
47273;SDS011;33007;49.082;19.306;2022-08-19T04:11:43;16.77;;;14.85;;
47273;SDS011;33007;49.082;19.306;2022-08-19T04:16:37;17.33;;;14.75;;
47273;SDS011;33007;49.082;19.306;2022-08-19T04:19:04;17.80;;;14.70;;
47273;SDS011;33007;49.082;19.306;2022-08-19T04:21:30;17.23;;;15.38;;
47273;SDS011;33007;49.082;19.306;2022-08-19T04:23:56;17.48;;;15.70;;
47273;SDS011;33007;49.082;19.306;2022-08-19T04:26:24;17.77;;;15.20;;
47273;SDS011;33007;49.082;19.306;2022-08-19T04:28:51;17.90;;;16.02;;
47273;SDS011;33007;49.082;19.306;2022-08-19T04:31:22;17.00;;;15.30;;
47273;SDS011;33007;49.082;19.306;2022-08-19T04:33:52;18.38;;;16.00;;
47273;SDS011;33007;49.082;19.306;2022-08-19T04:36:40;18.90;;;15.93;;
47273;SDS011;33007;49.082;19.306;2022-08-19T04:39:10;17.38;;;15.57;;
47273;SDS011;33007;49.082;19.306;2022-08-19T04:41:39;17.48;;;15.27;;
47273;SDS011;33007;49.082;19.306;2022-08-19T04:44:23;17.15;;;15.45;;
47273;SDS011;33007;49.082;19.306;2022-08-19T04:46:49;18.38;;;16.33;;
47273;SDS011;33007;49.082;19.306;2022-08-19T04:49:16;17.95;;;16.10;;
47273;SDS011;33007;49.082;19.306;2022-08-19T04:51:44;27.52;;;17.02;;
47273;SDS011;33007;49.082;19.306;2022-08-19T04:54:12;20.15;;;16.65;;
47273;SDS011;33007;49.082;19.306;2022-08-19T04:56:39;20.85;;;16.60;;
47273;SDS011;33007;49.082;19.306;2022-08-19T04:59:06;24.30;;;17.15;;
47273;SDS011;33007;49.082;19.306;2022-08-19T05:01:33;18.20;;;16.23;;
47273;SDS011;33007;49.082;19.306;2022-08-19T05:04:02;58.90;;;18.42;;
47273;SDS011;33007;49.082;19.306;2022-08-19T05:06:29;21.67;;;16.75;;
47273;SDS011;33007;49.082;19.306;2022-08-19T05:08:59;19.15;;;16.13;;
47273;SDS011;33007;49.082;19.306;2022-08-19T05:11:26;20.00;;;16.25;;
47273;SDS011;33007;49.082;19.306;2022-08-19T05:13:55;18.30;;;16.40;;
47273;SDS011;33007;49.082;19.306;2022-08-19T05:16:21;17.83;;;15.75;;
47273;SDS011;33007;49.082;19.306;2022-08-19T05:18:49;23.38;;;16.98;;
47273;SDS011;33007;49.082;19.306;2022-08-19T05:21:33;19.35;;;16.75;;
47273;SDS011;33007;49.082;19.306;2022-08-19T05:24:18;25.33;;;17.23;;
47273;SDS011;33007;49.082;19.306;2022-08-19T05:26:46;21.98;;;17.20;;
47273;SDS011;33007;49.082;19.306;2022-08-19T05:29:14;21.55;;;17.20;;
47273;SDS011;33007;49.082;19.306;2022-08-19T05:31:40;22.25;;;17.15;;
47273;SDS011;33007;49.082;19.306;2022-08-19T05:34:06;20.83;;;16.85;;
47273;SDS011;33007;49.082;19.306;2022-08-19T05:36:34;23.30;;;18.17;;
47273;SDS011;33007;49.082;19.306;2022-08-19T05:39:06;20.55;;;17.23;;
47273;SDS011;33007;49.082;19.306;2022-08-19T05:41:34;20.83;;;17.02;;
47273;SDS011;33007;49.082;19.306;2022-08-19T05:44:03;22.10;;;17.00;;
47273;SDS011;33007;49.082;19.306;2022-08-19T05:46:34;19.40;;;17.13;;
47273;SDS011;33007;49.082;19.306;2022-08-19T05:49:07;21.27;;;17.23;;
47273;SDS011;33007;49.082;19.306;2022-08-19T05:51:34;21.83;;;16.98;;
47273;SDS011;33007;49.082;19.306;2022-08-19T05:54:02;17.77;;;15.98;;
47273;SDS011;33007;49.082;19.306;2022-08-19T05:56:30;17.65;;;15.85;;
47273;SDS011;33007;49.082;19.306;2022-08-19T05:58:56;19.75;;;16.95;;
47273;SDS011;33007;49.082;19.306;2022-08-19T06:01:23;19.75;;;16.92;;
47273;SDS011;33007;49.082;19.306;2022-08-19T06:03:50;22.33;;;17.52;;
47273;SDS011;33007;49.082;19.306;2022-08-19T06:06:16;19.58;;;17.48;;
47273;SDS011;33007;49.082;19.306;2022-08-19T06:08:44;48.85;;;19.48;;
47273;SDS011;33007;49.082;19.306;2022-08-19T06:11:16;21.67;;;16.95;;
47273;SDS011;33007;49.082;19.306;2022-08-19T06:13:47;19.73;;;16.50;;
47273;SDS011;33007;49.082;19.306;2022-08-19T06:16:18;24.80;;;17.70;;
47273;SDS011;33007;49.082;19.306;2022-08-19T06:18:53;21.48;;;16.83;;
47273;SDS011;33007;49.082;19.306;2022-08-19T06:21:22;25.05;;;17.73;;
47273;SDS011;33007;49.082;19.306;2022-08-19T06:23:49;21.52;;;16.83;;
47273;SDS011;33007;49.082;19.306;2022-08-19T06:26:17;18.70;;;16.75;;
47273;SDS011;33007;49.082;19.306;2022-08-19T06:28:43;21.65;;;18.05;;
47273;SDS011;33007;49.082;19.306;2022-08-19T06:31:19;20.95;;;17.40;;
47273;SDS011;33007;49.082;19.306;2022-08-19T06:33:47;20.65;;;16.48;;
47273;SDS011;33007;49.082;19.306;2022-08-19T06:38:54;18.58;;;16.42;;
47273;SDS011;33007;49.082;19.306;2022-08-19T06:41:23;18.35;;;15.95;;
47273;SDS011;33007;49.082;19.306;2022-08-19T06:43:52;17.70;;;15.90;;
47273;SDS011;33007;49.082;19.306;2022-08-19T06:46:18;18.08;;;16.17;;
47273;SDS011;33007;49.082;19.306;2022-08-19T06:48:45;16.63;;;14.13;;
47273;SDS011;33007;49.082;19.306;2022-08-19T06:51:11;20.30;;;16.60;;
47273;SDS011;33007;49.082;19.306;2022-08-19T06:53:40;18.50;;;16.07;;
47273;SDS011;33007;49.082;19.306;2022-08-19T06:56:06;18.52;;;16.45;;
47273;SDS011;33007;49.082;19.306;2022-08-19T06:58:32;19.63;;;17.27;;
47273;SDS011;33007;49.082;19.306;2022-08-19T07:01:07;18.00;;;15.98;;
47273;SDS011;33007;49.082;19.306;2022-08-19T07:03:34;18.70;;;15.82;;
47273;SDS011;33007;49.082;19.306;2022-08-19T07:06:04;44.88;;;16.52;;
47273;SDS011;33007;49.082;19.306;2022-08-19T07:08:33;17.42;;;14.65;;
47273;SDS011;33007;49.082;19.306;2022-08-19T07:11:01;14.70;;;13.27;;
47273;SDS011;33007;49.082;19.306;2022-08-19T07:13:31;14.90;;;12.82;;
47273;SDS011;33007;49.082;19.306;2022-08-19T07:15:58;19.15;;;14.18;;
47273;SDS011;33007;49.082;19.306;2022-08-19T07:18:29;17.58;;;13.73;;
47273;SDS011;33007;49.082;19.306;2022-08-19T07:21:05;14.75;;;13.15;;
47273;SDS011;33007;49.082;19.306;2022-08-19T07:23:33;17.80;;;13.30;;
47273;SDS011;33007;49.082;19.306;2022-08-19T07:26:09;15.18;;;13.60;;
47273;SDS011;33007;49.082;19.306;2022-08-19T07:28:37;14.18;;;12.75;;
47273;SDS011;33007;49.082;19.306;2022-08-19T07:31:07;14.07;;;12.68;;
47273;SDS011;33007;49.082;19.306;2022-08-19T07:33:33;17.30;;;14.18;;
47273;SDS011;33007;49.082;19.306;2022-08-19T07:36:01;17.08;;;14.48;;
47273;SDS011;33007;49.082;19.306;2022-08-19T07:41:18;15.07;;;13.52;;
47273;SDS011;33007;49.082;19.306;2022-08-19T07:43:46;16.63;;;14.60;;
47273;SDS011;33007;49.082;19.306;2022-08-19T07:46:12;15.35;;;13.80;;
47273;SDS011;33007;49.082;19.306;2022-08-19T07:48:39;17.45;;;14.85;;
47273;SDS011;33007;49.082;19.306;2022-08-19T07:51:07;14.13;;;12.77;;
47273;SDS011;33007;49.082;19.306;2022-08-19T07:53:35;13.40;;;12.20;;
47273;SDS011;33007;49.082;19.306;2022-08-19T07:56:01;12.65;;;11.35;;
47273;SDS011;33007;49.082;19.306;2022-08-19T07:58:33;13.13;;;11.77;;
47273;SDS011;33007;49.082;19.306;2022-08-19T08:01:00;14.10;;;12.63;;
47273;SDS011;33007;49.082;19.306;2022-08-19T08:03:27;13.57;;;12.02;;
47273;SDS011;33007;49.082;19.306;2022-08-19T08:06:12;15.93;;;12.27;;
47273;SDS011;33007;49.082;19.306;2022-08-19T08:08:57;13.00;;;11.75;;
47273;SDS011;33007;49.082;19.306;2022-08-19T08:14:16;13.57;;;12.18;;
47273;SDS011;33007;49.082;19.306;2022-08-19T08:16:44;11.60;;;10.48;;
47273;SDS011;33007;49.082;19.306;2022-08-19T08:19:10;12.05;;;10.50;;
47273;SDS011;33007;49.082;19.306;2022-08-19T08:21:39;11.60;;;10.53;;
47273;SDS011;33007;49.082;19.306;2022-08-19T08:24:05;12.90;;;11.05;;
47273;SDS011;33007;49.082;19.306;2022-08-19T08:26:31;12.38;;;9.68;;
47273;SDS011;33007;49.082;19.306;2022-08-19T08:28:56;10.25;;;9.05;;
47273;SDS011;33007;49.082;19.306;2022-08-19T08:31:22;11.40;;;10.20;;
47273;SDS011;33007;49.082;19.306;2022-08-19T08:33:48;11.93;;;9.77;;
47273;SDS011;33007;49.082;19.306;2022-08-19T08:36:14;11.85;;;10.13;;
47273;SDS011;33007;49.082;19.306;2022-08-19T08:38:41;14.13;;;10.32;;
47273;SDS011;33007;49.082;19.306;2022-08-19T08:47:21;23.85;;;10.32;;
47273;SDS011;33007;49.082;19.306;2022-08-19T08:49:57;13.65;;;9.88;;
47273;SDS011;33007;49.082;19.306;2022-08-19T08:52:29;11.57;;;9.18;;
47273;SDS011;33007;49.082;19.306;2022-08-19T08:55:04;9.70;;;8.55;;
47273;SDS011;33007;49.082;19.306;2022-08-19T09:00:19;10.45;;;9.13;;
47273;SDS011;33007;49.082;19.306;2022-08-19T09:02:48;10.23;;;8.50;;
47273;SDS011;33007;49.082;19.306;2022-08-19T09:05:14;10.15;;;8.60;;
47273;SDS011;33007;49.082;19.306;2022-08-19T09:13:24;8.32;;;7.53;;
47273;SDS011;33007;49.082;19.306;2022-08-19T09:16:19;12.57;;;7.88;;
47273;SDS011;33007;49.082;19.306;2022-08-19T09:18:48;10.32;;;8.18;;
47273;SDS011;33007;49.082;19.306;2022-08-19T09:21:20;9.55;;;8.40;;
47273;SDS011;33007;49.082;19.306;2022-08-19T09:23:50;9.48;;;8.40;;
47273;SDS011;33007;49.082;19.306;2022-08-19T09:26:17;11.93;;;8.13;;
47273;SDS011;33007;49.082;19.306;2022-08-19T09:28:46;12.13;;;8.40;;
47273;SDS011;33007;49.082;19.306;2022-08-19T09:31:17;25.02;;;9.05;;
47273;SDS011;33007;49.082;19.306;2022-08-19T09:33:47;12.68;;;7.93;;
47273;SDS011;33007;49.082;19.306;2022-08-19T09:36:13;12.15;;;7.90;;
47273;SDS011;33007;49.082;19.306;2022-08-19T09:38:41;8.75;;;7.85;;
47273;SDS011;33007;49.082;19.306;2022-08-19T09:41:08;10.77;;;8.27;;
47273;SDS011;33007;49.082;19.306;2022-08-19T09:43:37;9.60;;;7.95;;
47273;SDS011;33007;49.082;19.306;2022-08-19T09:46:03;10.35;;;7.60;;
47273;SDS011;33007;49.082;19.306;2022-08-19T09:48:31;15.15;;;8.43;;
47273;SDS011;33007;49.082;19.306;2022-08-19T09:51:10;12.50;;;8.15;;
47273;SDS011;33007;49.082;19.306;2022-08-19T09:53:40;8.80;;;7.45;;
47273;SDS011;33007;49.082;19.306;2022-08-19T09:56:05;9.10;;;7.10;;
47273;SDS011;33007;49.082;19.306;2022-08-19T09:58:31;8.75;;;7.10;;
47273;SDS011;33007;49.082;19.306;2022-08-19T10:00:58;8.43;;;7.63;;
47273;SDS011;33007;49.082;19.306;2022-08-19T10:03:25;8.13;;;7.20;;
47273;SDS011;33007;49.082;19.306;2022-08-19T10:05:51;8.70;;;6.85;;
47273;SDS011;33007;49.082;19.306;2022-08-19T10:08:19;8.35;;;7.07;;
47273;SDS011;33007;49.082;19.306;2022-08-19T10:10:53;8.38;;;7.35;;
47273;SDS011;33007;49.082;19.306;2022-08-19T10:13:20;7.47;;;6.40;;
47273;SDS011;33007;49.082;19.306;2022-08-19T10:15:50;13.65;;;7.00;;
47273;SDS011;33007;49.082;19.306;2022-08-19T10:18:21;9.48;;;7.15;;
47273;SDS011;33007;49.082;19.306;2022-08-19T10:20:47;8.88;;;7.10;;
47273;SDS011;33007;49.082;19.306;2022-08-19T10:23:15;9.63;;;6.60;;
47273;SDS011;33007;49.082;19.306;2022-08-19T10:25:41;8.48;;;6.78;;
47273;SDS011;33007;49.082;19.306;2022-08-19T10:28:08;7.50;;;6.40;;
47273;SDS011;33007;49.082;19.306;2022-08-19T10:30:37;9.73;;;7.17;;
47273;SDS011;33007;49.082;19.306;2022-08-19T10:33:04;7.32;;;6.63;;
47273;SDS011;33007;49.082;19.306;2022-08-19T10:35:30;10.23;;;6.05;;
47273;SDS011;33007;49.082;19.306;2022-08-19T10:37:55;9.57;;;6.55;;
47273;SDS011;33007;49.082;19.306;2022-08-19T10:40:25;7.70;;;5.65;;
47273;SDS011;33007;49.082;19.306;2022-08-19T10:42:52;7.22;;;5.38;;
47273;SDS011;33007;49.082;19.306;2022-08-19T10:45:19;8.93;;;4.70;;
47273;SDS011;33007;49.082;19.306;2022-08-19T10:47:47;5.68;;;5.07;;
47273;SDS011;33007;49.082;19.306;2022-08-19T10:50:12;5.53;;;5.03;;
47273;SDS011;33007;49.082;19.306;2022-08-19T10:52:57;8.57;;;5.50;;
47273;SDS011;33007;49.082;19.306;2022-08-19T10:55:23;9.50;;;5.50;;
47273;SDS011;33007;49.082;19.306;2022-08-19T10:58:11;7.22;;;5.57;;
47273;SDS011;33007;49.082;19.306;2022-08-19T11:00:38;8.38;;;5.20;;
47273;SDS011;33007;49.082;19.306;2022-08-19T11:03:05;8.15;;;5.32;;
47273;SDS011;33007;49.082;19.306;2022-08-19T11:05:30;7.38;;;5.20;;
47273;SDS011;33007;49.082;19.306;2022-08-19T11:07:56;7.68;;;5.80;;
47273;SDS011;33007;49.082;19.306;2022-08-19T11:10:22;9.20;;;5.40;;
47273;SDS011;33007;49.082;19.306;2022-08-19T11:12:48;6.57;;;5.65;;
47273;SDS011;33007;49.082;19.306;2022-08-19T11:15:17;5.85;;;5.00;;
47273;SDS011;33007;49.082;19.306;2022-08-19T11:17:43;10.38;;;5.22;;
47273;SDS011;33007;49.082;19.306;2022-08-19T11:20:10;9.55;;;5.40;;
47273;SDS011;33007;49.082;19.306;2022-08-19T11:22:37;10.00;;;5.63;;
47273;SDS011;33007;49.082;19.306;2022-08-19T11:25:03;7.60;;;5.70;;
47273;SDS011;33007;49.082;19.306;2022-08-19T11:27:29;9.95;;;5.43;;
47273;SDS011;33007;49.082;19.306;2022-08-19T11:29:55;7.13;;;5.28;;
47273;SDS011;33007;49.082;19.306;2022-08-19T11:32:20;5.80;;;5.13;;
47273;SDS011;33007;49.082;19.306;2022-08-19T11:34:46;7.28;;;5.25;;
47273;SDS011;33007;49.082;19.306;2022-08-19T11:37:12;15.65;;;6.05;;
47273;SDS011;33007;49.082;19.306;2022-08-19T11:39:37;9.10;;;5.47;;
47273;SDS011;33007;49.082;19.306;2022-08-19T11:42:04;14.75;;;5.95;;
47273;SDS011;33007;49.082;19.306;2022-08-19T11:44:49;6.95;;;5.05;;
47273;SDS011;33007;49.082;19.306;2022-08-19T11:47:15;12.02;;;5.85;;
47273;SDS011;33007;49.082;19.306;2022-08-19T11:49:41;8.48;;;5.30;;
47273;SDS011;33007;49.082;19.306;2022-08-19T11:52:07;9.77;;;5.60;;
47273;SDS011;33007;49.082;19.306;2022-08-19T11:54:33;6.65;;;5.35;;
47273;SDS011;33007;49.082;19.306;2022-08-19T11:56:58;7.03;;;5.05;;
47273;SDS011;33007;49.082;19.306;2022-08-19T11:59:24;8.77;;;4.82;;
47273;SDS011;33007;49.082;19.306;2022-08-19T12:01:51;8.13;;;5.10;;
47273;SDS011;33007;49.082;19.306;2022-08-19T12:04:17;7.32;;;4.95;;
47273;SDS011;33007;49.082;19.306;2022-08-19T12:06:42;8.40;;;5.18;;
47273;SDS011;33007;49.082;19.306;2022-08-19T12:09:08;8.50;;;5.13;;
47273;SDS011;33007;49.082;19.306;2022-08-19T12:11:35;8.88;;;5.38;;
47273;SDS011;33007;49.082;19.306;2022-08-19T12:14:02;6.10;;;5.05;;
47273;SDS011;33007;49.082;19.306;2022-08-19T12:16:28;30.10;;;6.47;;
47273;SDS011;33007;49.082;19.306;2022-08-19T12:18:56;9.93;;;4.72;;
47273;SDS011;33007;49.082;19.306;2022-08-19T12:21:25;9.35;;;5.30;;
47273;SDS011;33007;49.082;19.306;2022-08-19T12:26:20;6.72;;;4.85;;
47273;SDS011;33007;49.082;19.306;2022-08-19T12:28:45;11.93;;;5.68;;
47273;SDS011;33007;49.082;19.306;2022-08-19T12:31:12;10.27;;;5.45;;
47273;SDS011;33007;49.082;19.306;2022-08-19T12:33:38;11.85;;;5.68;;
47273;SDS011;33007;49.082;19.306;2022-08-19T12:36:05;23.02;;;5.93;;
47273;SDS011;33007;49.082;19.306;2022-08-19T12:38:33;9.05;;;5.47;;
47273;SDS011;33007;49.082;19.306;2022-08-19T12:41:02;8.85;;;5.32;;
47273;SDS011;33007;49.082;19.306;2022-08-19T12:43:31;12.30;;;5.63;;
47273;SDS011;33007;49.082;19.306;2022-08-19T12:45:57;10.35;;;5.40;;
47273;SDS011;33007;49.082;19.306;2022-08-19T12:48:22;10.40;;;5.15;;
47273;SDS011;33007;49.082;19.306;2022-08-19T12:50:48;9.68;;;5.50;;
47273;SDS011;33007;49.082;19.306;2022-08-19T12:53:14;11.52;;;5.68;;
47273;SDS011;33007;49.082;19.306;2022-08-19T12:55:40;9.00;;;5.72;;
47273;SDS011;33007;49.082;19.306;2022-08-19T12:58:07;8.82;;;5.85;;
47273;SDS011;33007;49.082;19.306;2022-08-19T13:00:33;8.77;;;5.10;;
47273;SDS011;33007;49.082;19.306;2022-08-19T13:02:59;6.80;;;5.30;;
47273;SDS011;33007;49.082;19.306;2022-08-19T13:05:26;8.02;;;5.55;;
47273;SDS011;33007;49.082;19.306;2022-08-19T13:07:54;19.53;;;6.43;;
47273;SDS011;33007;49.082;19.306;2022-08-19T13:10:21;15.18;;;6.22;;
47273;SDS011;33007;49.082;19.306;2022-08-19T13:12:49;18.70;;;7.35;;
47273;SDS011;33007;49.082;19.306;2022-08-19T13:15:16;9.05;;;6.03;;
47273;SDS011;33007;49.082;19.306;2022-08-19T13:17:46;10.25;;;5.63;;
47273;SDS011;33007;49.082;19.306;2022-08-19T13:20:16;9.57;;;6.22;;
47273;SDS011;33007;49.082;19.306;2022-08-19T13:22:44;10.05;;;5.93;;
47273;SDS011;33007;49.082;19.306;2022-08-19T13:25:10;9.93;;;5.43;;
47273;SDS011;33007;49.082;19.306;2022-08-19T13:27:37;9.95;;;6.05;;
47273;SDS011;33007;49.082;19.306;2022-08-19T13:30:04;17.52;;;6.68;;
47273;SDS011;33007;49.082;19.306;2022-08-19T13:32:49;11.90;;;5.82;;
47273;SDS011;33007;49.082;19.306;2022-08-19T13:35:33;8.85;;;5.15;;
47273;SDS011;33007;49.082;19.306;2022-08-19T13:37:59;10.32;;;5.20;;
47273;SDS011;33007;49.082;19.306;2022-08-19T13:40:26;8.35;;;5.15;;
47273;SDS011;33007;49.082;19.306;2022-08-19T13:42:53;14.25;;;5.97;;
47273;SDS011;33007;49.082;19.306;2022-08-19T13:48:42;9.85;;;5.30;;
47273;SDS011;33007;49.082;19.306;2022-08-19T13:53:37;19.10;;;5.68;;
47273;SDS011;33007;49.082;19.306;2022-08-19T13:56:07;9.35;;;5.30;;
47273;SDS011;33007;49.082;19.306;2022-08-19T13:58:35;7.82;;;5.13;;
47273;SDS011;33007;49.082;19.306;2022-08-19T14:01:01;6.93;;;4.88;;
47273;SDS011;33007;49.082;19.306;2022-08-19T14:03:27;12.70;;;5.63;;
47273;SDS011;33007;49.082;19.306;2022-08-19T14:05:53;10.70;;;5.68;;
47273;SDS011;33007;49.082;19.306;2022-08-19T14:08:18;5.80;;;5.25;;
47273;SDS011;33007;49.082;19.306;2022-08-19T14:10:44;9.15;;;5.00;;
47273;SDS011;33007;49.082;19.306;2022-08-19T14:13:12;7.65;;;4.90;;
47273;SDS011;33007;49.082;19.306;2022-08-19T14:15:40;7.05;;;4.57;;
47273;SDS011;33007;49.082;19.306;2022-08-19T14:18:06;6.75;;;4.53;;
47273;SDS011;33007;49.082;19.306;2022-08-19T14:20:35;7.50;;;4.78;;
47273;SDS011;33007;49.082;19.306;2022-08-19T14:23:00;12.10;;;4.85;;
47273;SDS011;33007;49.082;19.306;2022-08-19T14:25:27;7.72;;;5.10;;
47273;SDS011;33007;49.082;19.306;2022-08-19T14:27:56;8.68;;;4.57;;
47273;SDS011;33007;49.082;19.306;2022-08-19T14:30:26;7.63;;;4.50;;
47273;SDS011;33007;49.082;19.306;2022-08-19T14:32:57;9.32;;;4.68;;
47273;SDS011;33007;49.082;19.306;2022-08-19T14:35:23;7.10;;;4.65;;
47273;SDS011;33007;49.082;19.306;2022-08-19T14:37:51;8.07;;;4.35;;
47273;SDS011;33007;49.082;19.306;2022-08-19T14:40:21;6.07;;;4.45;;
47273;SDS011;33007;49.082;19.306;2022-08-19T14:43:01;8.73;;;5.03;;
47273;SDS011;33007;49.082;19.306;2022-08-19T14:45:34;11.70;;;4.60;;
47273;SDS011;33007;49.082;19.306;2022-08-19T14:48:01;9.43;;;4.63;;
47273;SDS011;33007;49.082;19.306;2022-08-19T14:50:27;11.77;;;4.90;;
47273;SDS011;33007;49.082;19.306;2022-08-19T14:52:59;20.50;;;4.50;;
47273;SDS011;33007;49.082;19.306;2022-08-19T14:55:30;12.93;;;4.97;;
47273;SDS011;33007;49.082;19.306;2022-08-19T14:57:56;10.45;;;4.55;;